Time;durP1;ratioP1;P1;durP2;ratioP2;P2;SDS_P1;SDS_P2;PMS_P1;PMS_P2;Temp;Humidity;BMP_temperature;BMP_pressure;BME280_temperature;BME280_humidity;BME280_pressure;Samples;Min_cycle;Max_cycle;Signal;HPM_P1;HPM_P2
2023/06/07 00:00:20;;;;;;;6.23;3.47;;;;;;;18.71;64.73;95380.66;4916430;28;20225;-76
2023/06/07 00:02:53;;;;;;;6.57;3.40;;;;;;;18.71;64.95;95383.31;4896511;29;20237;-76
2023/06/07 00:05:21;;;;;;;6.90;3.40;;;;;;;18.70;64.90;95385.13;4905522;29;20238;-75
2023/06/07 00:07:47;;;;;;;5.50;3.00;;;;;;;18.73;64.62;95378.56;4895647;29;20233;-76
2023/06/07 00:10:16;;;;;;;7.10;3.30;;;;;;;18.60;64.46;95377.03;4874848;29;20245;-72
2023/06/07 00:12:47;;;;;;;5.43;3.10;;;;;;;18.59;64.88;95385.19;4878417;28;20229;-74
2023/06/07 00:15:14;;;;;;;6.43;3.23;;;;;;;18.55;64.83;95368.16;4870898;29;20263;-72
2023/06/07 00:17:44;;;;;;;8.70;3.67;;;;;;;18.54;64.67;95380.63;4879774;29;20245;-75
2023/06/07 00:20:12;;;;;;;5.47;3.27;;;;;;;18.55;64.85;95376.13;4887386;29;20233;-73
2023/06/07 00:22:55;;;;;;;6.87;3.30;;;;;;;18.65;65.37;95376.31;4890677;29;20234;-73
2023/06/07 00:25:22;;;;;;;5.40;3.30;;;;;;;18.70;64.82;95377.19;4906248;29;20241;-73
2023/06/07 00:27:47;;;;;;;7.80;3.50;;;;;;;18.54;65.83;95364.69;4890981;29;20314;-73
2023/06/07 00:30:13;;;;;;;6.10;3.30;;;;;;;18.52;65.02;95364.16;4890382;29;20234;-71
2023/06/07 00:32:39;;;;;;;5.57;3.30;;;;;;;18.50;65.42;95362.78;4906684;29;20266;-72
2023/06/07 00:35:07;;;;;;;8.43;3.70;;;;;;;18.48;66.10;95354.25;4890230;29;20238;-73
2023/06/07 00:37:32;;;;;;;8.90;3.30;;;;;;;18.41;66.27;95364.97;4890143;29;20787;-73
2023/06/07 00:39:58;;;;;;;8.67;3.53;;;;;;;18.33;66.41;95368.00;4890836;29;20238;-73
2023/06/07 00:42:23;;;;;;;9.43;3.30;;;;;;;18.28;66.72;95365.25;4906223;29;20262;-73
2023/06/07 00:44:49;;;;;;;7.07;3.30;;;;;;;18.14;66.99;95359.41;4911546;28;20238;-72
2023/06/07 00:47:14;;;;;;;7.17;3.40;;;;;;;18.18;66.97;95357.09;4909012;28;20739;-73
2023/06/07 00:49:40;;;;;;;7.43;3.20;;;;;;;18.09;67.45;95355.84;4894090;29;20236;-73
2023/06/07 00:52:06;;;;;;;8.77;3.37;;;;;;;18.09;67.77;95358.50;4894638;29;20222;-73
2023/06/07 00:54:31;;;;;;;7.57;3.50;;;;;;;18.13;67.22;95355.16;4908510;29;20222;-73
2023/06/07 00:56:57;;;;;;;6.30;3.30;;;;;;;18.09;67.60;95359.31;4909384;29;20234;-73
2023/06/07 00:59:22;;;;;;;7.10;3.33;;;;;;;18.01;67.03;95359.69;4898495;29;20838;-73
2023/06/07 01:01:51;;;;;;;7.90;3.07;;;;;;;18.01;66.49;95359.69;4893997;29;20238;-72
2023/06/07 01:04:19;;;;;;;6.47;3.30;;;;;;;17.87;66.96;95353.03;4894291;28;20230;-73
2023/06/07 01:06:44;;;;;;;8.60;3.40;;;;;;;17.84;66.09;95358.78;4908845;29;20230;-74
2023/06/07 01:09:13;;;;;;;5.13;3.17;;;;;;;17.74;66.35;95357.78;4894670;29;20253;-74
2023/06/07 01:11:43;;;;;;;6.10;3.20;;;;;;;17.69;66.17;95362.97;4893337;29;20269;-72
2023/06/07 01:14:09;;;;;;;5.20;3.17;;;;;;;17.68;66.39;95359.50;4894304;29;20337;-73
2023/06/07 01:16:35;;;;;;;10.53;3.30;;;;;;;17.71;65.39;95366.19;4892736;29;20609;-73
2023/06/07 01:19:04;;;;;;;4.70;2.90;;;;;;;17.65;64.49;95357.31;4909828;29;20324;-72
2023/06/07 01:21:29;;;;;;;5.60;2.93;;;;;;;17.54;65.78;95358.16;4900401;29;20249;-72
2023/06/07 01:23:56;;;;;;;6.77;3.10;;;;;;;17.53;65.75;95359.16;4909464;29;20222;-72
2023/06/07 01:26:26;;;;;;;7.13;3.40;;;;;;;17.58;66.11;95355.84;4892785;29;21131;-73
2023/06/07 01:28:52;;;;;;;6.40;3.57;;;;;;;17.60;65.38;95354.56;4894179;29;20309;-72
2023/06/07 01:31:18;;;;;;;6.23;3.40;;;;;;;17.43;66.16;95359.72;4892631;29;20235;-73
2023/06/07 01:33:43;;;;;;;4.70;3.00;;;;;;;17.50;66.02;95349.81;4909505;29;20720;-73
2023/06/07 01:36:09;;;;;;;6.97;2.90;;;;;;;17.40;65.97;95351.47;4909032;29;20229;-73
2023/06/07 01:38:34;;;;;;;8.30;2.87;;;;;;;17.40;66.35;95352.28;4891787;29;20592;-73
2023/06/07 01:41:00;;;;;;;4.40;2.97;;;;;;;17.45;65.46;95349.75;4913324;29;20249;-72
2023/06/07 01:43:25;;;;;;;6.10;2.90;;;;;;;17.54;65.51;95352.84;4908929;29;20312;-72
2023/06/07 01:45:52;;;;;;;6.03;3.03;;;;;;;17.44;64.66;95348.13;4876424;29;20238;-73
2023/06/07 01:48:18;;;;;;;8.83;3.40;;;;;;;17.40;65.30;95348.81;4908597;29;20226;-73
2023/06/07 01:50:43;;;;;;;10.57;3.10;;;;;;;17.41;64.86;95342.50;4892751;29;20261;-74
2023/06/07 01:53:09;;;;;;;4.93;3.03;;;;;;;17.35;64.90;95349.50;4893452;29;20257;-74
2023/06/07 01:55:35;;;;;;;8.27;3.17;;;;;;;17.34;65.16;95341.78;4906274;29;20277;-73
2023/06/07 01:58:37;;;;;;;7.67;3.27;;;;;;;17.26;65.09;95339.50;4908951;29;20292;-73
2023/06/07 02:01:09;;;;;;;9.10;3.00;;;;;;;17.25;64.66;95338.69;4892392;29;20272;-71
2023/06/07 02:03:39;;;;;;;6.17;3.30;;;;;;;17.24;64.62;95347.66;4924203;29;20246;-72
2023/06/07 02:06:08;;;;;;;5.17;3.00;;;;;;;17.28;65.10;95340.88;4892890;29;20301;-72
2023/06/07 02:08:48;;;;;;;7.57;3.17;;;;;;;17.30;64.24;95343.28;4920494;29;20233;-73
2023/06/07 02:11:15;;;;;;;9.43;3.00;;;;;;;17.24;64.78;95346.88;4894455;29;20241;-72
2023/06/07 02:13:41;;;;;;;7.33;3.30;;;;;;;17.26;65.01;95350.09;4891868;29;20234;-72
2023/06/07 02:16:06;;;;;;;7.83;3.13;;;;;;;17.19;65.95;95350.19;4892659;29;20238;-72
2023/06/07 02:18:37;;;;;;;6.63;3.20;;;;;;;17.26;64.58;95340.31;4875959;29;20226;-72
2023/06/07 02:21:03;;;;;;;7.20;2.93;;;;;;;17.16;65.27;95341.91;4893550;29;20314;-74
2023/06/07 02:23:28;;;;;;;7.33;2.90;;;;;;;17.30;64.75;95341.44;4892344;29;20284;-73
2023/06/07 02:25:54;;;;;;;5.70;3.00;;;;;;;17.23;64.70;95346.06;4907033;29;20238;-72
2023/06/07 02:28:19;;;;;;;6.27;2.93;;;;;;;17.17;64.94;95349.59;4907581;29;20229;-73
2023/06/07 02:30:45;;;;;;;5.00;2.80;;;;;;;17.22;64.91;95348.94;4908254;29;20713;-71
2023/06/07 02:33:13;;;;;;;7.07;3.00;;;;;;;17.06;64.98;95350.41;4907814;29;20746;-72
2023/06/07 02:35:45;;;;;;;5.30;3.00;;;;;;;17.07;66.03;95346.75;4890979;29;20784;-73
2023/06/07 02:38:17;;;;;;;5.30;3.10;;;;;;;17.00;66.00;95361.91;4877136;29;20780;-75
2023/06/07 02:40:45;;;;;;;5.57;2.77;;;;;;;17.10;65.98;95356.06;4906614;28;20238;-75
2023/06/07 02:43:11;;;;;;;10.33;3.07;;;;;;;17.14;66.02;95357.22;4914818;29;20255;-71
2023/06/07 02:45:36;;;;;;;7.47;3.13;;;;;;;16.99;65.99;95357.66;4907071;29;20234;-73
2023/06/07 02:48:02;;;;;;;8.27;2.97;;;;;;;17.13;66.02;95353.75;4908226;28;20237;-72
2023/06/07 02:50:27;;;;;;;7.37;3.40;;;;;;;17.06;65.42;95346.94;4906862;29;20913;-71
2023/06/07 02:52:53;;;;;;;5.83;2.93;;;;;;;16.80;66.17;95348.19;4908078;29;20242;-72
2023/06/07 02:55:18;;;;;;;6.00;3.30;;;;;;;17.01;65.87;95342.34;4911855;29;20262;-70
2023/06/07 02:57:44;;;;;;;4.87;3.03;;;;;;;17.08;65.25;95344.88;4908053;29;20338;-72
2023/06/07 03:00:13;;;;;;;7.93;2.87;;;;;;;17.05;65.28;95348.78;4917291;29;20256;-72
2023/06/07 03:02:40;;;;;;;7.80;3.13;;;;;;;17.06;65.61;95353.06;4902992;29;20707;-74
2023/06/07 03:05:13;;;;;;;7.00;2.90;;;;;;;17.02;65.51;95346.63;4897904;29;20327;-73
2023/06/07 03:07:46;;;;;;;6.80;2.87;;;;;;;17.04;65.66;95349.84;4896746;28;20331;-73
2023/06/07 03:10:14;;;;;;;4.83;2.80;;;;;;;17.02;64.90;95335.22;4881864;29;20802;-73
2023/06/07 03:12:40;;;;;;;7.83;2.90;;;;;;;16.88;65.79;95347.06;4862819;29;20405;-72
2023/06/07 03:15:09;;;;;;;9.40;3.27;;;;;;;16.98;65.90;95336.72;4899432;29;20241;-74
2023/06/07 03:17:49;;;;;;;6.40;2.83;;;;;;;17.00;66.76;95346.03;4904399;29;20722;-73
2023/06/07 03:20:20;;;;;;;5.77;2.90;;;;;;;17.10;65.89;95340.19;4904750;29;20234;-73
2023/06/07 03:22:48;;;;;;;6.70;2.90;;;;;;;17.06;66.08;95347.75;4871585;29;20254;-74
2023/06/07 03:25:14;;;;;;;6.80;3.00;;;;;;;16.91;66.25;95341.31;4918594;29;20244;-73
2023/06/07 03:27:40;;;;;;;7.17;3.03;;;;;;;16.93;66.14;95337.41;4887443;29;20242;-75
2023/06/07 03:30:18;;;;;;;6.50;3.07;;;;;;;16.88;66.34;95341.78;4901258;29;20273;-74
2023/06/07 03:32:49;;;;;;;6.43;2.90;;;;;;;16.86;66.64;95334.03;4873884;29;20293;-73
2023/06/07 03:35:15;;;;;;;4.63;3.00;;;;;;;16.79;66.55;95338.63;4904738;29;20686;-74
2023/06/07 03:37:53;;;;;;;6.97;2.90;;;;;;;16.80;67.47;95346.34;4880750;29;20313;-72
2023/06/07 03:40:28;;;;;;;7.33;3.20;;;;;;;16.82;67.21;95343.47;4876507;28;20872;-72
2023/06/07 03:42:54;;;;;;;9.53;3.10;;;;;;;16.81;67.44;95342.66;4888371;29;20300;-72
2023/06/07 03:45:25;;;;;;;8.40;3.10;;;;;;;16.73;68.09;95350.94;4880180;28;20245;-74
2023/06/07 03:48:03;;;;;;;8.13;3.17;;;;;;;16.68;68.24;95340.25;4892483;29;20333;-74
2023/06/07 03:50:32;;;;;;;5.20;3.00;;;;;;;16.62;68.54;95337.69;4868704;29;20241;-71
2023/06/07 03:52:58;;;;;;;8.57;3.30;;;;;;;16.69;68.41;95343.69;4867152;29;20239;-73
2023/06/07 03:55:29;;;;;;;6.43;3.10;;;;;;;16.74;69.01;95341.19;4874699;29;20229;-74
2023/06/07 03:58:04;;;;;;;5.73;3.10;;;;;;;16.74;68.49;95351.75;4909342;29;20233;-75
2023/06/07 04:00:34;;;;;;;8.43;3.27;;;;;;;16.72;69.13;95345.84;4903285;29;20241;-73
2023/06/07 04:03:00;;;;;;;9.27;3.20;;;;;;;16.76;69.50;95341.75;4883098;29;20708;-73
2023/06/07 04:05:29;;;;;;;9.73;3.40;;;;;;;16.74;70.25;95343.81;4898252;29;20231;-73
2023/06/07 04:07:59;;;;;;;6.07;3.10;;;;;;;16.78;69.96;95348.44;4907824;29;20238;-73
2023/06/07 04:10:30;;;;;;;9.00;3.27;;;;;;;16.83;70.10;95345.09;4902151;29;20233;-73
2023/06/07 04:12:58;;;;;;;5.63;3.40;;;;;;;16.93;70.07;95348.00;4888997;29;20265;-73
2023/06/07 04:15:27;;;;;;;7.53;3.30;;;;;;;16.99;70.38;95333.84;4896772;28;20234;-74
2023/06/07 04:17:55;;;;;;;12.57;3.50;;;;;;;16.97;70.17;95335.91;4882328;29;20723;-73
2023/06/07 04:20:30;;;;;;;8.80;3.47;;;;;;;16.99;69.70;95330.38;4906635;28;20237;-76
2023/06/07 04:22:57;;;;;;;7.23;3.30;;;;;;;17.03;69.79;95336.84;4901551;29;20246;-74
2023/06/07 04:25:41;;;;;;;9.33;3.10;;;;;;;17.02;70.82;95343.16;4904567;29;20241;-74
2023/06/07 04:28:08;;;;;;;5.80;3.53;;;;;;;17.11;69.46;95342.59;4928006;28;20285;-73
2023/06/07 04:30:40;;;;;;;5.63;3.40;;;;;;;17.13;69.75;95337.88;4873320;29;20921;-74
2023/06/07 04:33:17;;;;;;;6.37;3.23;;;;;;;17.12;70.99;95344.22;4908499;29;20242;-74
2023/06/07 04:35:42;;;;;;;6.27;3.17;;;;;;;17.18;71.06;95348.56;4889743;29;20743;-74
2023/06/07 04:38:15;;;;;;;9.90;3.20;;;;;;;17.33;69.66;95348.94;4911161;29;20297;-74
2023/06/07 04:40:42;;;;;;;9.10;3.20;;;;;;;17.39;69.95;95348.00;4893374;29;20234;-74
2023/06/07 04:43:12;;;;;;;9.93;3.17;;;;;;;17.38;69.28;95343.75;4896714;29;20230;-73
2023/06/07 04:45:41;;;;;;;7.30;3.40;;;;;;;17.43;69.64;95343.84;4912379;28;20237;-75
2023/06/07 04:48:26;;;;;;;10.33;3.30;;;;;;;17.45;70.40;95348.94;4915240;29;20234;-75
2023/06/07 04:50:54;;;;;;;8.63;3.57;;;;;;;17.41;69.77;95342.50;4917812;28;20704;-74
2023/06/07 04:53:27;;;;;;;9.97;3.43;;;;;;;17.52;70.04;95333.75;4910123;29;20264;-73
2023/06/07 04:56:03;;;;;;;11.67;3.10;;;;;;;17.56;69.25;95336.72;4897075;29;20234;-74
2023/06/07 04:58:31;;;;;;;14.73;3.40;;;;;;;17.57;71.00;95346.28;4895813;29;20328;-75
2023/06/07 05:01:03;;;;;;;6.40;3.20;;;;;;;17.65;68.83;95341.44;4896213;29;20234;-75
2023/06/07 05:03:31;;;;;;;12.57;3.30;;;;;;;17.59;69.11;95341.56;4888745;29;20277;-75
2023/06/07 05:06:00;;;;;;;12.63;3.27;;;;;;;17.66;69.34;95347.53;4904575;29;20233;-75
2023/06/07 05:08:26;;;;;;;7.47;3.43;;;;;;;17.64;70.15;95345.13;4882218;29;20421;-73
2023/06/07 05:11:06;;;;;;;16.40;3.57;;;;;;;17.56;70.87;95347.31;4886687;29;20260;-74
2023/06/07 05:13:32;;;;;;;5.53;3.10;;;;;;;17.60;70.78;95345.84;4898149;28;20237;-76
2023/06/07 05:16:02;;;;;;;9.87;2.97;;;;;;;17.61;71.11;95336.84;4899393;29;20258;-76
2023/06/07 05:18:31;;;;;;;10.27;3.30;;;;;;;17.70;70.31;95340.72;4922013;29;20317;-76
2023/06/07 05:21:00;;;;;;;8.93;3.43;;;;;;;17.72;71.05;95343.97;4915023;29;20259;-75
2023/06/07 05:23:26;;;;;;;13.07;3.30;;;;;;;17.80;70.96;95354.19;4882115;29;20296;-75
2023/06/07 05:26:02;;;;;;;13.67;3.20;;;;;;;17.97;69.35;95353.25;4911207;29;20242;-76
2023/06/07 05:28:30;;;;;;;9.93;3.40;;;;;;;18.13;69.29;95359.63;4904963;28;20333;-77
2023/06/07 05:30:56;;;;;;;8.90;3.53;;;;;;;18.07;69.73;95350.81;4905999;29;20244;-75
2023/06/07 05:33:22;;;;;;;7.10;3.10;;;;;;;18.12;70.01;95347.44;4898988;29;20234;-77
2023/06/07 05:35:48;;;;;;;11.47;3.40;;;;;;;18.09;69.98;95345.25;4887864;29;20238;-76
2023/06/07 05:38:19;;;;;;;11.47;4.10;;;;;;;18.18;69.79;95349.94;4922899;29;20245;-74
2023/06/07 05:40:48;;;;;;;10.77;3.80;;;;;;;18.22;70.14;95352.94;4883004;29;20238;-74
2023/06/07 05:43:16;;;;;;;7.53;3.40;;;;;;;18.33;68.70;95362.69;4920297;29;20237;-76
2023/06/07 05:45:45;;;;;;;7.70;3.30;;;;;;;18.30;69.86;95359.69;4867428;29;20250;-74
2023/06/07 05:48:19;;;;;;;7.13;3.47;;;;;;;18.47;68.07;95353.44;4879228;29;20244;-74
2023/06/07 05:50:45;;;;;;;8.50;3.33;;;;;;;18.47;68.92;95348.13;4910670;29;20237;-75
2023/06/07 05:53:12;;;;;;;11.27;3.40;;;;;;;18.45;68.40;95347.53;4910379;28;20237;-73
2023/06/07 05:55:42;;;;;;;10.53;3.40;;;;;;;18.55;68.28;95347.75;4860897;29;20269;-74
2023/06/07 05:58:12;;;;;;;10.10;3.23;;;;;;;18.62;68.23;95356.38;4894685;29;20384;-73
2023/06/07 06:00:44;;;;;;;6.07;3.40;;;;;;;18.68;68.14;95350.09;4891849;29;20246;-75
2023/06/07 06:03:10;;;;;;;7.47;3.10;;;;;;;18.75;65.76;95339.34;4908824;29;20245;-75
2023/06/07 06:05:38;;;;;;;11.10;3.13;;;;;;;18.70;67.59;95340.06;4894907;28;20249;-76
2023/06/07 06:08:04;;;;;;;7.63;3.23;;;;;;;18.74;68.46;95343.84;4903188;29;20292;-75
2023/06/07 06:10:30;;;;;;;9.27;3.40;;;;;;;18.88;69.41;95340.88;4905039;29;20304;-76
2023/06/07 06:12:58;;;;;;;4.87;3.17;;;;;;;18.97;67.94;95340.25;4904497;29;20232;-74
2023/06/07 06:15:23;;;;;;;9.70;3.50;;;;;;;18.93;67.97;95333.81;4909991;29;20316;-74
2023/06/07 06:17:53;;;;;;;10.73;3.17;;;;;;;18.98;67.94;95341.88;4902443;28;20242;-79
2023/06/07 06:20:20;;;;;;;11.27;3.50;;;;;;;18.98;68.71;95343.72;4905397;28;20912;-76
2023/06/07 06:22:45;;;;;;;8.87;3.40;;;;;;;19.10;68.41;95341.78;4913470;29;20230;-75
2023/06/07 06:25:13;;;;;;;8.87;3.20;;;;;;;19.13;68.77;95343.97;4884583;29;20262;-74
2023/06/07 06:27:42;;;;;;;5.47;3.20;;;;;;;19.05;68.88;95341.69;4886902;29;20774;-76
2023/06/07 06:30:08;;;;;;;7.83;3.40;;;;;;;19.19;67.98;95345.63;4861352;29;20237;-75
2023/06/07 06:32:41;;;;;;;8.33;3.30;;;;;;;19.09;68.65;95343.63;4892304;29;20301;-74
2023/06/07 06:35:14;;;;;;;8.87;3.20;;;;;;;19.11;68.55;95354.00;4867341;29;20727;-75
2023/06/07 06:37:43;;;;;;;9.80;3.30;;;;;;;19.25;67.34;95348.13;4877412;29;20260;-76
2023/06/07 06:40:08;;;;;;;7.27;3.20;;;;;;;19.38;67.12;95349.66;4907998;29;20838;-74
2023/06/07 06:42:38;;;;;;;7.50;3.30;;;;;;;19.25;68.67;95348.13;4900610;29;20238;-75
2023/06/07 06:45:08;;;;;;;7.73;3.30;;;;;;;19.39;68.82;95345.97;4896550;29;20245;-75
2023/06/07 06:47:41;;;;;;;9.03;3.20;;;;;;;19.47;66.41;95351.66;4883652;29;20241;-76
2023/06/07 06:50:18;;;;;;;6.23;3.23;;;;;;;19.40;66.44;95352.88;4893119;29;20293;-75
2023/06/07 06:52:47;;;;;;;9.33;3.53;;;;;;;19.34;68.40;95351.19;4899240;29;20260;-76
2023/06/07 06:55:13;;;;;;;8.07;3.63;;;;;;;19.55;68.63;95349.63;4885182;29;20242;-75
2023/06/07 06:57:46;;;;;;;10.57;3.60;;;;;;;19.54;68.08;95346.19;4914527;29;20309;-76
2023/06/07 07:00:12;;;;;;;9.13;3.47;;;;;;;19.64;68.14;95343.66;4893445;29;20230;-76
2023/06/07 07:02:48;;;;;;;7.67;3.50;;;;;;;19.65;66.68;95336.50;4872647;29;20265;-75
2023/06/07 07:05:21;;;;;;;10.40;3.90;;;;;;;19.78;66.98;95344.91;4923290;29;20283;-76
2023/06/07 07:07:46;;;;;;;6.40;3.40;;;;;;;19.81;66.47;95333.81;4889978;29;20225;-75
2023/06/07 07:10:12;;;;;;;8.50;3.63;;;;;;;19.79;66.62;95333.25;4907310;29;20257;-76
2023/06/07 07:12:46;;;;;;;10.77;3.70;;;;;;;19.74;66.69;95338.50;4886083;29;20663;-78
2023/06/07 07:15:18;;;;;;;9.17;3.50;;;;;;;19.87;65.55;95332.81;4880829;29;20793;-76
2023/06/07 07:17:47;;;;;;;6.53;3.60;;;;;;;19.95;67.11;95335.03;4865488;29;20267;-76
2023/06/07 07:20:17;;;;;;;6.60;3.40;;;;;;;19.89;66.99;95335.25;4892572;29;21002;-75
2023/06/07 07:22:51;;;;;;;7.87;3.30;;;;;;;19.97;66.01;95332.94;4864247;29;20321;-76
2023/06/07 07:25:23;;;;;;;11.30;3.87;;;;;;;20.06;66.27;95334.09;4866956;29;20277;-75
2023/06/07 07:27:48;;;;;;;10.27;3.73;;;;;;;20.13;65.29;95337.38;4859104;29;20241;-75
2023/06/07 07:30:19;;;;;;;9.10;3.40;;;;;;;20.21;66.29;95332.66;4891988;29;20326;-75
2023/06/07 07:33:01;;;;;;;7.67;3.47;;;;;;;20.25;67.13;95333.81;4867573;29;20385;-76
2023/06/07 07:35:33;;;;;;;7.00;3.27;;;;;;;20.25;64.63;95326.66;4874252;29;20329;-75
2023/06/07 07:38:16;;;;;;;7.03;3.60;;;;;;;20.35;65.57;95329.41;4850921;29;20231;-76
2023/06/07 07:40:55;;;;;;;6.13;3.60;;;;;;;20.44;63.81;95329.78;4885170;29;20904;-76
2023/06/07 07:43:25;;;;;;;8.87;3.67;;;;;;;20.45;65.47;95331.38;4895268;29;20260;-76
2023/06/07 07:45:50;;;;;;;7.50;3.77;;;;;;;20.51;65.14;95333.03;4884949;29;20880;-74
2023/06/07 07:48:18;;;;;;;7.63;3.70;;;;;;;20.60;64.48;95328.88;4889944;29;20230;-74
2023/06/07 07:50:44;;;;;;;10.27;3.73;;;;;;;20.72;64.49;95337.50;4878340;29;20261;-76
2023/06/07 07:53:10;;;;;;;7.43;3.67;;;;;;;20.56;64.07;95333.09;4901017;29;20266;-76
2023/06/07 07:55:35;;;;;;;11.13;4.00;;;;;;;20.83;64.39;95334.69;4912570;29;20233;-74
2023/06/07 07:58:01;;;;;;;15.00;3.80;;;;;;;20.86;62.94;95336.03;4912551;29;20229;-74
2023/06/07 08:00:29;;;;;;;9.73;3.90;;;;;;;20.87;63.81;95336.84;4913267;28;20249;-76
2023/06/07 08:02:58;;;;;;;9.97;3.80;;;;;;;20.90;63.06;95337.13;4902274;29;20325;-75
2023/06/07 08:05:24;;;;;;;7.23;3.90;;;;;;;21.01;63.69;95346.00;4880338;29;20226;-75
2023/06/07 08:07:49;;;;;;;6.47;3.50;;;;;;;20.95;63.42;95339.84;4911362;29;20244;-75
2023/06/07 08:10:15;;;;;;;9.03;4.10;;;;;;;20.99;62.83;95346.28;4911736;29;20225;-74
2023/06/07 08:12:43;;;;;;;10.47;3.90;;;;;;;21.19;64.02;95346.44;4894750;29;20233;-78
2023/06/07 08:15:09;;;;;;;10.20;3.53;;;;;;;21.36;62.81;95341.78;4894662;29;20229;-74
2023/06/07 08:17:35;;;;;;;10.70;3.90;;;;;;;21.37;62.16;95340.72;4894146;29;20248;-72
2023/06/07 08:20:04;;;;;;;12.70;4.00;;;;;;;21.38;62.40;95342.31;4909788;29;20230;-72
2023/06/07 08:22:29;;;;;;;5.20;3.70;;;;;;;21.34;62.18;95338.59;4909606;29;20237;-73
2023/06/07 08:24:55;;;;;;;8.23;3.87;;;;;;;21.45;62.37;95334.09;4893567;29;20238;-73
2023/06/07 08:27:20;;;;;;;5.90;3.47;;;;;;;21.56;62.86;95340.31;4909387;29;20230;-72
2023/06/07 08:29:46;;;;;;;9.80;3.87;;;;;;;21.67;63.12;95333.97;4909636;29;20218;-73
2023/06/07 08:32:11;;;;;;;10.10;3.70;;;;;;;21.67;63.04;95332.13;4909715;29;20230;-73
2023/06/07 08:34:39;;;;;;;8.43;3.63;;;;;;;21.61;63.02;95333.16;4894312;29;20237;-72
2023/06/07 08:37:06;;;;;;;6.70;3.70;;;;;;;21.53;62.65;95335.50;4910886;29;20861;-72
2023/06/07 08:39:32;;;;;;;7.43;3.60;;;;;;;21.56;63.39;95340.31;4909293;29;20238;-73
2023/06/07 08:41:57;;;;;;;6.47;4.10;;;;;;;21.61;65.07;95340.34;4909058;29;20222;-73
2023/06/07 08:44:23;;;;;;;8.07;3.90;;;;;;;21.69;62.93;95337.19;4877736;29;20641;-74
2023/06/07 08:46:49;;;;;;;12.40;4.05;;;;;;;21.95;61.88;95333.63;4909019;29;20673;-73
2023/06/07 08:49:14;;;;;;;7.83;3.80;;;;;;;21.94;61.28;95332.84;4893806;29;20249;-73
2023/06/07 08:51:41;;;;;;;7.75;3.65;;;;;;;22.02;61.95;95339.50;4873340;29;20234;-73
2023/06/07 08:54:07;;;;;;;8.07;3.60;;;;;;;21.96;61.94;95336.03;4904992;29;20644;-74
2023/06/07 08:56:32;;;;;;;8.55;3.53;;;;;;;22.06;61.69;95335.28;4892954;29;20245;-73
2023/06/07 08:58:58;;;;;;;12.00;3.72;;;;;;;22.04;61.73;95340.06;4909558;29;20262;-73
2023/06/07 09:01:23;;;;;;;6.97;3.47;;;;;;;21.90;61.72;95338.94;4908516;29;20685;-73
2023/06/07 09:03:51;;;;;;;8.60;3.75;;;;;;;21.94;61.24;95334.69;4894013;29;20776;-73
2023/06/07 09:06:17;;;;;;;7.03;3.80;;;;;;;21.97;61.88;95331.50;4892386;29;20231;-73
2023/06/07 09:08:43;;;;;;;9.30;3.78;;;;;;;22.11;62.03;95332.63;4909445;29;20249;-72
2023/06/07 09:11:08;;;;;;;13.27;3.90;;;;;;;22.20;60.62;95331.06;4893264;29;20293;-72
2023/06/07 09:13:35;;;;;;;12.85;3.90;;;;;;;22.34;60.61;95328.69;4908867;29;20242;-72
2023/06/07 09:16:00;;;;;;;11.20;4.00;;;;;;;22.43;59.90;95322.59;4893119;29;20226;-72
2023/06/07 09:18:45;;;;;;;9.02;3.65;;;;;;;22.40;60.17;95328.44;4908458;29;20321;-72
2023/06/07 09:21:32;;;;;;;6.90;3.88;;;;;;;22.46;60.49;95323.94;4908210;29;20237;-73
2023/06/07 09:23:58;;;;;;;7.47;3.72;;;;;;;22.34;60.98;95323.38;4908020;29;20233;-73
2023/06/07 09:26:35;;;;;;;12.20;4.65;;;;;;;22.38;61.49;95329.78;4892250;29;20230;-73
2023/06/07 09:29:05;;;;;;;22.38;4.90;;;;;;;22.42;62.23;95323.66;4908716;29;20229;-73
2023/06/07 09:31:35;;;;;;;7.97;3.90;;;;;;;22.38;61.72;95321.78;4893122;29;20327;-73
2023/06/07 09:34:22;;;;;;;6.13;3.50;;;;;;;22.40;61.71;95325.78;4913628;29;20321;-73
2023/06/07 09:36:51;;;;;;;7.72;3.53;;;;;;;22.49;63.71;95326.09;4906719;29;20258;-72
2023/06/07 09:39:23;;;;;;;8.32;3.78;;;;;;;22.48;61.30;95325.28;4892839;28;20226;-73
2023/06/07 09:41:56;;;;;;;6.82;3.80;;;;;;;22.68;59.86;95314.69;4892449;29;20341;-73
2023/06/07 09:44:22;;;;;;;9.07;3.90;;;;;;;22.74;60.10;95310.94;4875887;29;20828;-71
2023/06/07 09:46:47;;;;;;;9.60;3.80;;;;;;;22.79;62.21;95318.94;4908652;29;20245;-72
2023/06/07 09:49:13;;;;;;;16.08;3.63;;;;;;;22.74;62.53;95318.94;4908296;29;20245;-74
2023/06/07 09:51:40;;;;;;;12.20;3.90;;;;;;;22.79;61.34;95312.81;4892766;28;20237;-72
2023/06/07 09:54:07;;;;;;;6.97;3.80;;;;;;;22.60;60.99;95312.50;4906601;29;20255;-73
2023/06/07 09:56:33;;;;;;;7.55;4.00;;;;;;;22.66;61.98;95308.78;4892776;29;20298;-73
2023/06/07 09:59:09;;;;;;;6.88;4.18;;;;;;;22.64;60.66;95316.25;4892618;29;20231;-74
2023/06/07 10:01:41;;;;;;;8.32;3.90;;;;;;;22.65;60.04;95304.53;4892286;29;20245;-72
2023/06/07 10:04:07;;;;;;;7.25;3.70;;;;;;;22.67;59.37;95304.25;4891408;29;20234;-73
2023/06/07 10:06:33;;;;;;;9.93;3.70;;;;;;;22.71;58.87;95303.44;4891244;29;20226;-72
2023/06/07 10:09:03;;;;;;;6.90;3.88;;;;;;;22.77;58.31;95302.41;4893455;29;20716;-72
2023/06/07 10:11:36;;;;;;;8.60;3.88;;;;;;;22.75;59.65;95299.22;4907563;29;20234;-72
2023/06/07 10:14:06;;;;;;;6.13;3.67;;;;;;;22.79;59.18;95297.59;4892818;29;20371;-72
2023/06/07 10:16:37;;;;;;;6.82;3.78;;;;;;;22.87;60.27;95295.47;4890840;28;20238;-72
2023/06/07 10:19:08;;;;;;;5.68;3.65;;;;;;;22.90;58.16;95301.09;4892079;29;20230;-76
2023/06/07 10:21:34;;;;;;;6.80;3.75;;;;;;;22.93;56.24;95297.84;4911184;29;20234;-74
2023/06/07 10:24:00;;;;;;;5.70;3.88;;;;;;;22.93;56.67;95292.53;4889193;29;20314;-74
2023/06/07 10:26:37;;;;;;;7.88;3.95;;;;;;;23.02;58.35;95301.63;4921641;29;20235;-75
2023/06/07 10:29:09;;;;;;;7.45;4.32;;;;;;;23.02;57.10;95296.28;4874038;29;20321;-75
2023/06/07 10:31:44;;;;;;;7.30;4.15;;;;;;;22.93;57.69;95294.41;4907399;29;20405;-76
2023/06/07 10:34:10;;;;;;;8.88;4.57;;;;;;;22.92;60.17;95290.13;4875212;29;20312;-73
2023/06/07 10:36:38;;;;;;;9.02;4.45;;;;;;;23.00;60.56;95285.03;4891872;29;20238;-73
2023/06/07 10:39:07;;;;;;;6.93;3.60;;;;;;;22.92;59.21;95285.59;4908218;29;20340;-74
2023/06/07 10:41:33;;;;;;;6.47;3.90;;;;;;;22.96;60.11;95286.66;4890715;29;21046;-75
2023/06/07 10:44:01;;;;;;;7.50;3.47;;;;;;;22.99;56.69;95283.44;4908124;29;20234;-75
2023/06/07 10:46:27;;;;;;;8.25;3.80;;;;;;;23.08;56.00;95289.03;4907305;29;20226;-74
2023/06/07 10:48:53;;;;;;;7.78;4.18;;;;;;;23.18;56.30;95276.50;4891957;29;20272;-75
2023/06/07 10:51:46;;;;;;;6.18;3.72;;;;;;;23.18;57.99;95281.84;4906504;28;20240;-74
2023/06/07 10:54:13;;;;;;;8.18;3.88;;;;;;;23.20;57.92;95285.03;4927053;28;20234;-75
2023/06/07 10:56:38;;;;;;;8.57;4.10;;;;;;;23.31;56.37;95283.94;4904299;29;20266;-75
2023/06/07 10:59:13;;;;;;;6.53;3.70;;;;;;;23.26;56.61;95283.16;4892361;29;20237;-74
2023/06/07 11:01:38;;;;;;;7.90;4.00;;;;;;;23.21;60.20;95272.50;4920817;29;20265;-75
2023/06/07 11:04:04;;;;;;;7.22;3.80;;;;;;;23.26;58.23;95275.16;4907621;29;20242;-74
2023/06/07 11:06:56;;;;;;;6.97;3.70;;;;;;;23.32;57.59;95274.06;4890042;28;20249;-76
2023/06/07 11:09:32;;;;;;;7.78;3.85;;;;;;;23.37;57.83;95272.22;4869254;29;20266;-73
2023/06/07 11:11:57;;;;;;;10.93;3.92;;;;;;;23.41;57.93;95273.28;4907128;29;20289;-72
2023/06/07 11:14:23;;;;;;;6.55;3.70;;;;;;;23.40;56.38;95270.88;4890829;29;20250;-73
2023/06/07 11:16:48;;;;;;;6.18;3.83;;;;;;;23.44;57.65;95269.25;4907368;29;21033;-72
2023/06/07 11:19:16;;;;;;;9.13;3.88;;;;;;;23.40;56.81;95268.22;4906567;29;20317;-72
2023/06/07 11:22:21;;;;;;;7.93;3.88;;;;;;;23.39;58.21;95259.38;4895493;23;20240;-72
2023/06/07 11:24:48;;;;;;;9.20;3.60;;;;;;;23.47;58.08;95266.06;4838835;29;20234;-73
2023/06/07 11:27:18;;;;;;;9.38;3.85;;;;;;;23.48;57.22;95261.53;4861526;29;20231;-72
2023/06/07 11:29:43;;;;;;;7.78;3.63;;;;;;;23.38;57.96;95254.34;4859303;29;20242;-73
2023/06/07 11:32:10;;;;;;;8.63;3.78;;;;;;;23.35;57.90;95252.19;4846172;29;20244;-73
2023/06/07 11:34:35;;;;;;;8.73;3.92;;;;;;;23.41;57.86;95249.22;4834635;29;20343;-73
2023/06/07 11:37:14;;;;;;;15.00;3.97;;;;;;;23.54;56.77;95250.53;4842700;29;20348;-73
2023/06/07 11:39:40;;;;;;;6.18;3.90;;;;;;;23.52;57.79;95242.00;4859488;29;20346;-73